首页
METAR-TAF:

METAR-TAF

机场 :

雅典埃莱夫塞里奥斯·韦尼泽洛斯国际机场

雅典, 希腊

纬度: 37-56N, 经度: 023-56E, 海拔: 94米

当前天气观测

该预报发布于19分钟前的07:50 UTC
风速3节,风向多变
温度 29°C
湿度 37%
气压 1011 hPa
能见度10公里或以上
1500米以下无云,无积雨云

METAR: LGAV 230750Z VRB03KT CAVOK 29/13 Q1011 NOSIG

时间: 11:09 (08:09 UTC)

预报

该预报发布于3小时和9分钟前的05:00 UTC
预报有效从23日的 06点(UTC)到 24日的 06点(UTC)
风速6节,风向西转西北
能见度10公里或以上
少量云层高于2000英尺
成为
从 23日的 07点(UTC)到 23日的 09点(UTC)
风速12节,风向北转东北
几率 30% :
短暂存在
从 23日的 10点(UTC)到 23日的 16点(UTC)
能見度: 5000
少量云层高于1800英尺, 积雨云.
多云层高于3000英尺
阵雨

TAF: LGAV 230500Z 2306/2406 29006KT 9999 FEW020 BECMG 2307/2309 03012KT PROB30 TEMPO 2310/2316 5000 SHRA FEW018CB BKN030

超过4000个机场的气象观测和天气预报(METAR&TAF报告)。

可查询的气象台以黄色和红色小点在地图上表示。

将鼠标移到小点上方,可查看气象台名称。

然后点击查看天气观测和预报。

如需切换地图:点击带黑十字的绿色按钮放大地图;点击带横线的绿色按钮缩小地图;或者点击绿色箭头查看邻近地区的地图。


METAR-TAF: